createdAt,value
2023-02-26T00:01:29.388Z,-1.00
2023-02-26T00:03:57.000Z,-1.00
2023-02-26T00:06:24.938Z,-1.00
2023-02-26T00:08:51.908Z,-0.90
2023-02-26T00:11:18.801Z,-1.00
2023-02-26T00:13:45.785Z,-0.90
2023-02-26T00:16:31.588Z,-0.90
2023-02-26T00:18:59.764Z,-0.90
2023-02-26T00:21:27.083Z,-0.90
2023-02-26T00:23:54.004Z,-0.90
2023-02-26T00:26:20.833Z,-0.90
2023-02-26T00:28:47.470Z,-0.90
2023-02-26T00:31:17.582Z,-0.90
2023-02-26T00:33:46.941Z,-1.00
2023-02-26T00:36:13.598Z,-1.10
2023-02-26T00:38:43.144Z,-1.10
2023-02-26T00:41:09.937Z,-1.10
2023-02-26T00:43:36.571Z,-1.10
2023-02-26T00:46:06.337Z,-1.10
2023-02-26T00:48:38.288Z,-1.10
2023-02-26T00:51:23.632Z,-1.00
2023-02-26T00:53:58.371Z,-1.00
2023-02-26T00:56:25.249Z,-1.10
2023-02-26T00:58:51.953Z,-1.10
2023-02-26T01:01:18.531Z,-1.10
2023-02-26T01:03:45.129Z,-1.10
2023-02-26T01:06:18.101Z,-1.00
2023-02-26T01:08:59.601Z,-0.90
2023-02-26T01:11:26.258Z,-0.90
2023-02-26T01:13:53.110Z,-0.90
2023-02-26T01:16:27.113Z,-0.90
2023-02-26T01:19:03.528Z,-0.90
2023-02-26T01:21:35.936Z,-0.90
2023-02-26T01:24:05.489Z,-1.00
2023-02-26T01:26:32.077Z,-0.90
2023-02-26T01:28:58.779Z,-0.80
2023-02-26T01:31:34.844Z,-1.00
2023-02-26T01:34:20.456Z,-0.90
2023-02-26T01:36:51.912Z,-1.00
2023-02-26T01:39:40.266Z,-0.90
2023-02-26T01:42:24.945Z,-0.80
2023-02-26T01:44:58.273Z,-0.90
2023-02-26T01:47:30.710Z,-0.90
2023-02-26T01:49:58.599Z,-0.80
2023-02-26T01:52:57.564Z,-0.90
2023-02-26T01:55:26.680Z,-0.90
2023-02-26T01:57:55.195Z,-0.80
2023-02-26T02:00:21.852Z,-0.90
2023-02-26T02:02:49.536Z,-1.00
2023-02-26T02:05:26.811Z,-1.00
2023-02-26T02:07:53.387Z,-0.90
2023-02-26T02:10:20.026Z,-0.90
2023-02-26T02:12:51.017Z,-0.90
2023-02-26T02:15:23.569Z,-0.90
2023-02-26T02:17:50.050Z,-0.90
2023-02-26T02:20:41.480Z,-0.90
2023-02-26T02:23:19.650Z,-0.90
2023-02-26T02:25:58.300Z,-0.90
2023-02-26T02:28:27.872Z,-0.90
2023-02-26T02:31:11.852Z,-0.90
2023-02-26T02:33:49.561Z,-0.90
2023-02-26T02:36:35.363Z,-0.90
2023-02-26T02:39:09.017Z,-0.90
2023-02-26T02:41:38.384Z,-0.90
2023-02-26T02:44:07.298Z,-0.90
2023-02-26T02:46:36.665Z,-0.90
2023-02-26T02:49:04.606Z,-0.90
2023-02-26T02:51:31.268Z,-0.90
2023-02-26T02:54:08.218Z,-0.90
2023-02-26T02:56:38.868Z,-0.90
2023-02-26T02:59:18.068Z,-0.90
2023-02-26T03:01:45.257Z,-0.90
2023-02-26T03:04:16.104Z,-0.90
2023-02-26T03:06:43.002Z,-0.90
2023-02-26T03:09:10.491Z,-1.00
2023-02-26T03:11:37.185Z,-0.90
2023-02-26T03:14:04.434Z,-1.00
2023-02-26T03:16:36.900Z,-1.00
2023-02-26T03:19:12.568Z,-1.00
2023-02-26T03:21:39.073Z,-1.00
2023-02-26T03:24:05.795Z,-1.10
2023-02-26T03:27:07.954Z,-1.00
2023-02-26T03:29:37.972Z,-1.00
2023-02-26T03:32:07.997Z,-0.90
2023-02-26T03:34:41.537Z,-0.90
2023-02-26T03:37:26.875Z,-0.90
2023-02-26T03:39:55.172Z,-0.90
2023-02-26T03:42:28.293Z,-0.90
2023-02-26T03:45:09.828Z,-0.90
2023-02-26T03:47:36.468Z,-0.90
2023-02-26T03:50:05.791Z,-1.00
2023-02-26T03:52:34.337Z,-1.00
2023-02-26T03:55:04.469Z,-1.00
2023-02-26T03:57:31.170Z,-0.90
2023-02-26T03:59:57.829Z,-0.90
2023-02-26T04:02:34.929Z,-0.90
2023-02-26T04:05:16.332Z,-0.90
2023-02-26T04:07:44.910Z,-0.80
2023-02-26T04:10:14.240Z,-0.90
2023-02-26T04:12:40.762Z,-0.90
2023-02-26T04:15:07.556Z,-0.80
2023-02-26T04:17:34.240Z,-0.80
2023-02-26T04:20:00.742Z,-0.80
2023-02-26T04:22:27.272Z,-0.90
2023-02-26T04:24:53.786Z,-0.80
2023-02-26T04:27:20.345Z,-0.90
2023-02-26T04:29:48.041Z,-0.90
2023-02-26T04:32:14.748Z,-0.90
2023-02-26T04:34:41.428Z,-0.80
2023-02-26T04:37:07.960Z,-0.90
2023-02-26T04:39:34.610Z,-0.90
2023-02-26T04:42:01.497Z,-0.80
2023-02-26T04:44:28.016Z,-0.80
2023-02-26T04:46:54.761Z,-0.90
2023-02-26T04:49:21.345Z,-0.80
2023-02-26T04:51:47.953Z,-0.80
2023-02-26T04:54:14.607Z,-0.80
2023-02-26T04:56:41.143Z,-0.80
2023-02-26T04:59:07.792Z,-0.80
2023-02-26T05:01:34.403Z,-0.80
2023-02-26T05:04:01.791Z,-0.80
2023-02-26T05:06:28.300Z,-0.90
2023-02-26T05:08:54.839Z,-0.80
2023-02-26T05:11:21.385Z,-0.80
2023-02-26T05:13:47.917Z,-0.80
2023-02-26T05:16:14.524Z,-0.70
2023-02-26T05:18:41.059Z,-0.80
2023-02-26T05:21:07.619Z,-0.70
2023-02-26T05:23:34.171Z,-0.70
2023-02-26T05:26:00.727Z,-0.70
2023-02-26T05:28:27.346Z,-0.70
2023-02-26T05:30:55.581Z,-0.90
2023-02-26T05:33:22.157Z,-0.80
2023-02-26T05:35:48.985Z,-0.80
2023-02-26T05:38:15.714Z,-0.80
2023-02-26T05:40:42.294Z,-0.70
2023-02-26T05:43:09.026Z,-0.70
2023-02-26T05:45:35.576Z,-0.70
2023-02-26T05:48:02.101Z,-0.80
2023-02-26T05:50:30.358Z,-0.80
2023-02-26T05:52:56.944Z,-0.70
2023-02-26T05:55:23.466Z,-0.70
2023-02-26T05:57:50.048Z,-0.80
2023-02-26T06:00:16.852Z,-0.80
2023-02-26T06:02:43.469Z,-0.80
2023-02-26T06:05:10.039Z,-0.80
2023-02-26T06:07:36.870Z,-0.80
2023-02-26T06:10:03.473Z,-0.70
2023-02-26T06:12:30.004Z,-0.70
2023-02-26T06:14:56.527Z,-0.70
2023-02-26T06:17:23.097Z,-0.60
2023-02-26T06:19:49.772Z,-0.50
2023-02-26T06:22:16.329Z,-0.50
2023-02-26T06:24:42.848Z,-0.50
2023-02-26T06:27:09.389Z,-0.50
2023-02-26T06:29:37.532Z,-0.50
2023-02-26T06:32:04.960Z,-0.60
2023-02-26T06:34:31.707Z,-0.60
2023-02-26T06:36:58.310Z,-0.60
2023-02-26T06:39:24.815Z,-0.50
2023-02-26T06:41:51.325Z,-0.50
2023-02-26T06:44:17.897Z,-0.50
2023-02-26T06:46:44.461Z,-0.50
2023-02-26T06:49:10.981Z,-0.50
2023-02-26T06:51:37.533Z,-0.40
2023-02-26T06:54:04.089Z,-0.50
2023-02-26T06:56:30.617Z,-0.50
2023-02-26T06:58:57.192Z,-0.50
2023-02-26T07:01:24.318Z,-0.50
2023-02-26T07:03:51.075Z,-0.50
2023-02-26T07:06:26.917Z,-0.40
2023-02-26T07:08:54.192Z,-0.40
2023-02-26T07:11:20.773Z,-0.40
2023-02-26T07:13:47.416Z,-0.40
2023-02-26T07:16:14.038Z,-0.30
2023-02-26T07:18:40.599Z,-0.40
2023-02-26T07:21:07.561Z,-0.40
2023-02-26T07:23:34.088Z,-0.40
2023-02-26T07:26:00.704Z,-0.30
2023-02-26T07:28:27.298Z,-0.30
2023-02-26T07:30:54.555Z,-0.30
2023-02-26T07:33:21.293Z,-0.40
2023-02-26T07:35:47.971Z,-0.20
2023-02-26T07:38:14.532Z,-0.20
2023-02-26T07:40:41.058Z,-0.10
2023-02-26T07:43:07.588Z,-0.10
2023-02-26T07:45:34.134Z,-0.10
2023-02-26T07:48:00.680Z,-0.10
2023-02-26T07:50:27.667Z,0.00
2023-02-26T07:52:54.200Z,-0.10
2023-02-26T07:55:21.018Z,-0.10
2023-02-26T07:57:47.701Z,-0.10
2023-02-26T08:00:14.672Z,-0.20
2023-02-26T08:02:41.332Z,-0.20
2023-02-26T08:05:08.073Z,-0.20
2023-02-26T08:07:34.654Z,-0.10
2023-02-26T08:10:01.529Z,-0.10
2023-02-26T08:12:28.444Z,-0.20
2023-02-26T08:14:54.986Z,-0.30
2023-02-26T08:17:21.503Z,-0.20
2023-02-26T08:19:48.004Z,-0.20
2023-02-26T08:22:14.665Z,-0.10
2023-02-26T08:24:41.335Z,0.00
2023-02-26T08:30:00.836Z,0.10
2023-02-26T08:32:28.461Z,0.20
2023-02-26T08:34:55.625Z,0.30
2023-02-26T08:37:25.235Z,0.40
2023-02-26T08:39:52.607Z,0.40
2023-02-26T08:42:20.510Z,0.30
2023-02-26T08:44:47.578Z,0.30
2023-02-26T08:47:17.114Z,0.20
2023-02-26T08:49:51.081Z,0.20
2023-02-26T08:52:17.648Z,0.30
2023-02-26T08:54:44.202Z,0.20
2023-02-26T08:57:12.851Z,0.20
2023-02-26T08:59:39.497Z,0.20
2023-02-26T09:02:06.365Z,0.40
2023-02-26T09:04:33.020Z,0.40
2023-02-26T09:06:59.548Z,0.50
2023-02-26T09:09:26.172Z,0.50
2023-02-26T09:11:52.704Z,0.50
2023-02-26T09:14:19.378Z,0.70
2023-02-26T09:16:46.186Z,0.80
2023-02-26T09:19:12.781Z,0.70
2023-02-26T09:21:39.410Z,0.80
2023-02-26T09:24:10.462Z,0.80
2023-02-26T09:26:38.313Z,0.80
2023-02-26T09:29:05.097Z,0.90
2023-02-26T09:31:32.648Z,0.90
2023-02-26T09:33:59.296Z,0.90
2023-02-26T09:36:26.217Z,1.10
2023-02-26T09:38:52.946Z,1.20
2023-02-26T09:41:26.388Z,1.20
2023-02-26T09:44:07.580Z,1.20
2023-02-26T09:46:43.940Z,1.30
2023-02-26T09:49:16.780Z,1.50
2023-02-26T09:51:44.185Z,1.40
2023-02-26T09:54:31.026Z,1.30
2023-02-26T09:56:59.577Z,1.30
2023-02-26T09:59:29.402Z,1.30
2023-02-26T10:02:01.941Z,1.30
2023-02-26T10:04:51.031Z,1.30
2023-02-26T10:07:20.308Z,1.30
2023-02-26T10:09:54.028Z,1.50
2023-02-26T10:12:22.365Z,1.40
2023-02-26T10:15:03.930Z,1.50
2023-02-26T10:17:33.441Z,1.50
2023-02-26T10:20:03.416Z,1.60
2023-02-26T10:22:33.397Z,1.40
2023-02-26T10:25:21.354Z,1.30
2023-02-26T10:28:16.489Z,1.20
2023-02-26T10:31:03.575Z,1.20
2023-02-26T10:33:49.212Z,1.40
2023-02-26T10:36:22.064Z,1.50
2023-02-26T10:38:51.065Z,1.50
2023-02-26T10:41:21.066Z,1.70
2023-02-26T10:44:03.570Z,1.70
2023-02-26T10:46:33.314Z,1.40
2023-02-26T10:49:24.974Z,1.10
2023-02-26T10:51:52.906Z,1.20
2023-02-26T10:54:24.440Z,1.20
2023-02-26T10:56:51.227Z,1.30
2023-02-26T10:59:18.228Z,1.30
2023-02-26T11:01:45.060Z,1.50
2023-02-26T11:04:13.310Z,1.50
2023-02-26T11:06:41.928Z,1.50
2023-02-26T11:09:18.164Z,1.60
2023-02-26T11:11:50.953Z,1.70
2023-02-26T11:14:17.562Z,1.60
2023-02-26T11:16:54.668Z,1.60
2023-02-26T11:19:31.302Z,1.70
2023-02-26T11:21:59.417Z,1.80
2023-02-26T11:24:32.181Z,1.80
2023-02-26T11:27:04.001Z,1.70
2023-02-26T11:29:44.982Z,1.80
2023-02-26T11:32:31.954Z,2.00
2023-02-26T11:34:58.983Z,2.00
2023-02-26T11:37:30.091Z,2.00
2023-02-26T11:40:10.966Z,2.00
2023-02-26T11:42:41.988Z,1.90
2023-02-26T11:45:13.410Z,1.80
2023-02-26T11:47:40.078Z,1.60
2023-02-26T11:50:13.995Z,1.50
2023-02-26T11:52:45.246Z,1.40
2023-02-26T11:55:22.460Z,1.50
2023-02-26T11:57:54.197Z,1.70
2023-02-26T12:00:24.541Z,1.90
2023-02-26T12:02:51.833Z,2.00
2023-02-26T12:05:20.195Z,2.00
2023-02-26T12:07:48.820Z,1.70
2023-02-26T12:10:23.371Z,1.80
2023-02-26T12:13:04.848Z,1.50
2023-02-26T12:15:54.564Z,1.50
2023-02-26T12:18:25.669Z,1.50
2023-02-26T12:21:07.637Z,1.60
2023-02-26T12:23:52.928Z,1.60
2023-02-26T12:26:32.056Z,1.60
2023-02-26T12:29:05.794Z,1.70
2023-02-26T12:31:41.012Z,1.60
2023-02-26T12:34:26.601Z,1.50
2023-02-26T12:37:05.709Z,1.40
2023-02-26T12:39:50.769Z,1.40
2023-02-26T12:42:36.318Z,1.60
2023-02-26T12:45:12.279Z,1.60
2023-02-26T12:47:47.559Z,1.60
2023-02-26T12:50:37.735Z,1.50
2023-02-26T12:53:16.385Z,1.40
2023-02-26T12:55:43.031Z,1.50
2023-02-26T12:58:28.331Z,1.70
2023-02-26T13:01:10.314Z,1.70
2023-02-26T13:03:46.256Z,1.80
2023-02-26T13:06:31.971Z,2.00
2023-02-26T13:09:17.392Z,1.90
2023-02-26T13:11:55.597Z,1.90
2023-02-26T13:14:23.306Z,2.10
2023-02-26T13:16:58.339Z,2.10
2023-02-26T13:19:37.095Z,2.10
2023-02-26T13:22:13.856Z,2.10
2023-02-26T13:24:43.551Z,2.10
2023-02-26T13:27:11.907Z,2.00
2023-02-26T13:29:46.136Z,2.10
2023-02-26T13:32:16.384Z,2.10
2023-02-26T13:34:55.643Z,2.00
2023-02-26T13:37:22.149Z,2.00
2023-02-26T13:40:06.835Z,2.10
2023-02-26T13:42:39.649Z,2.00
2023-02-26T13:45:24.040Z,1.90
2023-02-26T13:47:56.699Z,2.00
2023-02-26T13:50:29.403Z,1.80
2023-02-26T13:52:56.109Z,1.50
2023-02-26T13:55:36.766Z,1.20
2023-02-26T13:58:22.121Z,1.10
2023-02-26T14:01:00.392Z,1.00
2023-02-26T14:03:27.440Z,0.80
2023-02-26T14:05:56.437Z,0.80
2023-02-26T14:08:26.754Z,0.70
2023-02-26T14:10:58.384Z,0.60
2023-02-26T14:13:36.442Z,0.40
2023-02-26T14:16:22.752Z,0.30
2023-02-26T14:18:50.875Z,0.20
2023-02-26T14:21:27.211Z,0.20
2023-02-26T14:24:03.435Z,0.30
2023-02-26T14:26:32.695Z,0.40
2023-02-26T14:29:05.540Z,0.50
2023-02-26T14:31:54.481Z,0.70
2023-02-26T14:34:26.937Z,0.70
2023-02-26T14:36:57.026Z,0.80
2023-02-26T14:39:31.525Z,0.90
2023-02-26T14:42:04.960Z,0.80
2023-02-26T14:44:36.578Z,0.70
2023-02-26T14:47:04.330Z,0.70
2023-02-26T14:52:39.752Z,0.60
2023-02-26T14:55:16.740Z,0.50
2023-02-26T14:57:43.379Z,0.50
2023-02-26T15:00:12.346Z,0.70
2023-02-26T15:02:39.334Z,0.80
2023-02-26T15:05:14.116Z,1.00
2023-02-26T15:07:52.981Z,1.00
2023-02-26T15:10:28.735Z,1.10
2023-02-26T15:12:55.615Z,1.00
2023-02-26T15:15:45.326Z,1.10
2023-02-26T15:18:32.167Z,1.10
2023-02-26T15:21:01.963Z,1.10
2023-02-26T15:23:28.512Z,1.10
2023-02-26T15:25:57.186Z,1.10
2023-02-26T15:28:28.984Z,1.20
2023-02-26T15:30:56.782Z,1.10
2023-02-26T15:33:25.070Z,0.90
2023-02-26T15:35:56.348Z,0.70
2023-02-26T15:38:23.112Z,0.70
2023-02-26T15:40:51.316Z,0.70
2023-02-26T15:43:21.558Z,0.70
2023-02-26T15:45:48.993Z,0.80
2023-02-26T15:48:17.586Z,0.70
2023-02-26T15:50:46.685Z,0.80
2023-02-26T15:53:17.486Z,0.90
2023-02-26T15:55:48.326Z,0.90
2023-02-26T15:58:19.455Z,1.00
2023-02-26T16:00:51.734Z,0.90
2023-02-26T16:03:18.262Z,0.80
2023-02-26T16:05:44.922Z,0.70
2023-02-26T16:08:13.885Z,0.50
2023-02-26T16:10:41.621Z,0.40
2023-02-26T16:13:10.989Z,0.30
2023-02-26T16:15:38.961Z,0.10
2023-02-26T16:18:07.249Z,0.00
2023-02-26T16:20:39.308Z,0.00
2023-02-26T16:23:14.352Z,-0.10
2023-02-26T16:26:01.428Z,-0.10
2023-02-26T16:28:33.079Z,-0.10
2023-02-26T16:31:01.150Z,-0.10
2023-02-26T16:33:31.520Z,-0.20
2023-02-26T16:36:04.697Z,-0.30
2023-02-26T16:38:32.868Z,-0.40
2023-02-26T16:41:00.495Z,-0.40
2023-02-26T16:43:33.530Z,-0.50
2023-02-26T16:46:01.077Z,-0.50
2023-02-26T16:48:29.432Z,-0.50
2023-02-26T16:51:14.257Z,-0.60
2023-02-26T16:53:53.865Z,-0.60
2023-02-26T16:56:22.383Z,-0.60
2023-02-26T16:58:51.632Z,-0.60
2023-02-26T17:01:19.676Z,-0.70
2023-02-26T17:03:49.357Z,-0.70
2023-02-26T17:06:18.933Z,-0.70
2023-02-26T17:08:57.240Z,-0.80
2023-02-26T17:11:24.302Z,-0.70
2023-02-26T17:14:02.701Z,-0.80
2023-02-26T17:16:29.702Z,-0.90
2023-02-26T17:18:56.542Z,-0.90
2023-02-26T17:21:23.119Z,-0.90
2023-02-26T17:23:50.785Z,-0.80
2023-02-26T17:26:17.296Z,-0.80
2023-02-26T17:28:43.944Z,-0.80
2023-02-26T17:31:12.656Z,-0.80
2023-02-26T17:33:43.050Z,-0.80
2023-02-26T17:36:13.175Z,-0.80
2023-02-26T17:38:39.720Z,-0.90
2023-02-26T17:41:08.245Z,-0.90
2023-02-26T17:43:34.802Z,-1.00
2023-02-26T17:46:01.649Z,-0.90
2023-02-26T17:48:28.333Z,-1.00
2023-02-26T17:50:55.777Z,-1.10
2023-02-26T17:53:23.232Z,-1.10
2023-02-26T17:55:50.657Z,-1.20
2023-02-26T17:58:18.284Z,-1.30
2023-02-26T18:00:49.524Z,-1.30
2023-02-26T18:03:16.508Z,-1.30
2023-02-26T18:05:43.253Z,-1.30
2023-02-26T18:08:17.567Z,-1.40
2023-02-26T18:10:44.328Z,-1.50
2023-02-26T18:13:10.964Z,-1.60
2023-02-26T18:15:37.499Z,-1.70
2023-02-26T18:18:06.081Z,-1.70
2023-02-26T18:20:32.621Z,-1.60
2023-02-26T18:22:59.290Z,-1.70
2023-02-26T18:25:26.924Z,-1.60
2023-02-26T18:27:54.795Z,-1.60
2023-02-26T18:30:28.587Z,-1.50
2023-02-26T18:32:55.768Z,-1.40
2023-02-26T18:35:23.036Z,-1.40
2023-02-26T18:37:51.187Z,-1.40
2023-02-26T18:40:19.404Z,-1.40
2023-02-26T18:42:46.323Z,-1.40
2023-02-26T18:45:12.949Z,-1.40
2023-02-26T18:47:41.235Z,-1.50
2023-02-26T18:50:08.826Z,-1.60
2023-02-26T18:52:35.679Z,-1.70
2023-02-26T18:55:03.056Z,-1.70
2023-02-26T18:57:30.048Z,-1.80
2023-02-26T18:59:56.699Z,-1.70
2023-02-26T19:02:23.506Z,-1.80
2023-02-26T19:04:50.152Z,-1.60
2023-02-26T19:07:16.711Z,-1.70
2023-02-26T19:09:43.277Z,-1.70
2023-02-26T19:12:10.995Z,-1.70
2023-02-26T19:14:38.598Z,-1.60
2023-02-26T19:17:05.545Z,-1.60
2023-02-26T19:19:32.119Z,-1.50
2023-02-26T19:21:58.646Z,-1.50
2023-02-26T19:24:25.232Z,-1.60
2023-02-26T19:26:51.830Z,-1.50
2023-02-26T19:29:19.925Z,-1.50
2023-02-26T19:31:46.639Z,-1.50
2023-02-26T19:34:13.573Z,-1.60
2023-02-26T19:36:43.318Z,-1.60
2023-02-26T19:39:11.861Z,-1.50
2023-02-26T19:41:38.404Z,-1.50
2023-02-26T19:44:04.939Z,-1.40
2023-02-26T19:46:31.529Z,-1.40
2023-02-26T19:48:58.097Z,-1.40
2023-02-26T19:51:24.975Z,-1.30
2023-02-26T19:53:51.638Z,-1.40
2023-02-26T19:56:18.176Z,-1.40
2023-02-26T19:58:44.793Z,-1.30
2023-02-26T20:01:11.308Z,-1.30
2023-02-26T20:03:38.063Z,-1.20
2023-02-26T20:06:04.865Z,-1.30
2023-02-26T20:08:32.168Z,-1.40
2023-02-26T20:10:58.881Z,-1.30
2023-02-26T20:13:29.650Z,-1.30
2023-02-26T20:15:59.169Z,-1.30
2023-02-26T20:18:28.587Z,-1.30
2023-02-26T20:20:55.256Z,-1.30
2023-02-26T20:23:21.773Z,-1.30
2023-02-26T20:25:50.357Z,-1.30
2023-02-26T20:28:18.103Z,-1.20
2023-02-26T20:30:45.423Z,-1.10
2023-02-26T20:33:12.358Z,-1.10
2023-02-26T20:35:40.855Z,-1.00
2023-02-26T20:38:07.375Z,-1.00
2023-02-26T20:40:33.946Z,-1.00
2023-02-26T20:43:00.552Z,-1.00
2023-02-26T20:45:27.232Z,-0.80
2023-02-26T20:47:53.752Z,-0.80
2023-02-26T20:50:20.377Z,-0.80
2023-02-26T20:52:46.954Z,-0.90
2023-02-26T20:55:13.543Z,-1.00
2023-02-26T20:57:40.130Z,-1.10
2023-02-26T21:00:11.032Z,-1.10
2023-02-26T21:02:38.147Z,-0.90
2023-02-26T21:05:04.894Z,-1.00
2023-02-26T21:07:31.696Z,-1.00
2023-02-26T21:09:58.854Z,-1.00
2023-02-26T21:12:25.847Z,-1.00
2023-02-26T21:14:55.857Z,-1.10
2023-02-26T21:17:23.294Z,-1.10
2023-02-26T21:19:50.002Z,-1.10
2023-02-26T21:22:16.909Z,-1.10
2023-02-26T21:24:43.573Z,-1.10
2023-02-26T21:27:15.459Z,-1.10
2023-02-26T21:29:42.296Z,-1.30
2023-02-26T21:32:09.121Z,-1.10
2023-02-26T21:34:36.313Z,-1.20
2023-02-26T21:37:03.880Z,-1.20
2023-02-26T21:39:31.068Z,-1.20
2023-02-26T21:42:00.121Z,-1.30
2023-02-26T21:44:27.277Z,-1.30
2023-02-26T21:46:54.148Z,-1.30
2023-02-26T21:49:20.724Z,-1.30
2023-02-26T21:51:47.261Z,-1.40
2023-02-26T21:54:13.986Z,-1.60
2023-02-26T21:56:40.540Z,-1.70
2023-02-26T21:59:07.078Z,-1.80
2023-02-26T22:01:34.148Z,-1.90
2023-02-26T22:04:01.880Z,-1.80
2023-02-26T22:06:28.916Z,-1.90
2023-02-26T22:08:55.558Z,-2.00
2023-02-26T22:11:22.156Z,-2.00
2023-02-26T22:13:49.017Z,-2.10
2023-02-26T22:16:16.305Z,-2.20
2023-02-26T22:18:43.007Z,-2.20
2023-02-26T22:21:09.580Z,-2.30
2023-02-26T22:23:36.131Z,-2.30
2023-02-26T22:26:02.794Z,-2.50
2023-02-26T22:28:29.398Z,-2.70
2023-02-26T22:30:56.310Z,-2.70
2023-02-26T22:33:23.462Z,-2.70
2023-02-26T22:35:51.232Z,-2.80
2023-02-26T22:38:17.745Z,-2.90
2023-02-26T22:40:44.610Z,-3.00
2023-02-26T22:43:12.173Z,-3.00
2023-02-26T22:45:38.789Z,-3.10
2023-02-26T22:48:05.438Z,-3.10
2023-02-26T22:50:33.136Z,-3.20
2023-02-26T22:52:59.897Z,-3.30
2023-02-26T22:55:26.546Z,-3.30
2023-02-26T22:57:53.129Z,-3.30
2023-02-26T23:03:11.198Z,-3.40
2023-02-26T23:05:37.976Z,-3.40
2023-02-26T23:08:04.586Z,-3.60
2023-02-26T23:10:31.256Z,-3.60
2023-02-26T23:13:00.157Z,-3.70
2023-02-26T23:15:26.943Z,-3.70
2023-02-26T23:17:53.484Z,-3.70
2023-02-26T23:20:20.034Z,-3.70
2023-02-26T23:22:46.708Z,-3.80
2023-02-26T23:25:13.264Z,-3.80
2023-02-26T23:27:39.885Z,-3.90
2023-02-26T23:30:08.239Z,-3.90
2023-02-26T23:32:34.940Z,-4.20
2023-02-26T23:35:01.573Z,-4.30
2023-02-26T23:37:28.087Z,-4.40
2023-02-26T23:39:54.789Z,-4.20
2023-02-26T23:42:21.390Z,-4.40
2023-02-26T23:44:47.924Z,-4.50
2023-02-26T23:47:14.501Z,-4.50
2023-02-26T23:49:41.044Z,-4.70
2023-02-26T23:52:07.564Z,-4.80
2023-02-26T23:54:34.120Z,-4.80
2023-02-26T23:57:00.644Z,-4.60
2023-02-26T23:59:27.163Z,-4.60
